Time;durP1;ratioP1;P1;durP2;ratioP2;P2;SDS_P1;SDS_P2;PMS_P1;PMS_P2;Temp;Humidity;BMP_temperature;BMP_pressure;BME280_temperature;BME280_humidity;BME280_pressure;Samples;Min_cycle;Max_cycle;Signal;HPM_P1;HPM_P2
2022/05/15 00:02:38;;;;;;;29.45;16.73;;;;;;;;;;5053225;28;20044;-69
2022/05/15 00:05:44;;;;;;;27.50;16.35;;;;;;;;;;5053177;28;20057;-69
2022/05/15 00:08:48;;;;;;;26.98;15.82;;;;;;;;;;5053124;28;20044;-69
2022/05/15 00:11:52;;;;;;;32.15;16.52;;;;;;;;;;5053092;28;20044;-69
2022/05/15 00:14:57;;;;;;;29.83;16.27;;;;;;;;;;5053320;28;20311;-69
2022/05/15 00:18:02;;;;;;;31.63;16.05;;;;;;;;;;5053259;28;20059;-69
2022/05/15 00:21:09;;;;;;;24.20;15.32;;;;;;;;;;5053244;28;20051;-68
2022/05/15 00:24:13;;;;;;;31.45;15.57;;;;;;;;;;5053221;28;20044;-68
2022/05/15 00:27:18;;;;;;;31.77;15.25;;;;;;;;;;5052999;28;20051;-70
2022/05/15 00:30:22;;;;;;;29.23;16.23;;;;;;;;;;5053181;28;20044;-68
2022/05/15 00:33:27;;;;;;;27.08;15.50;;;;;;;;;;5052843;28;20052;-68
2022/05/15 00:36:31;;;;;;;27.02;16.50;;;;;;;;;;5040775;28;20040;-70
2022/05/15 00:39:35;;;;;;;32.25;17.15;;;;;;;;;;5052390;28;20044;-70
2022/05/15 00:42:39;;;;;;;27.13;16.63;;;;;;;;;;5052901;28;20385;-71
2022/05/15 00:45:44;;;;;;;25.85;15.57;;;;;;;;;;5052384;28;20052;-70
2022/05/15 00:48:49;;;;;;;22.95;15.20;;;;;;;;;;5052284;28;20040;-70
2022/05/15 00:51:58;;;;;;;23.38;15.50;;;;;;;;;;5051680;28;20052;-69
2022/05/15 00:55:13;;;;;;;25.63;15.80;;;;;;;;;;5051936;28;20052;-70
2022/05/15 00:58:29;;;;;;;28.00;16.65;;;;;;;;;;5051946;28;20040;-70
2022/05/15 01:01:33;;;;;;;26.88;17.27;;;;;;;;;;5051214;28;20047;-69
2022/05/15 01:04:38;;;;;;;27.45;16.65;;;;;;;;;;5051458;28;20056;-70
2022/05/15 01:07:42;;;;;;;30.02;15.65;;;;;;;;;;5051298;28;20052;-69
2022/05/15 01:10:48;;;;;;;26.48;14.23;;;;;;;;;;5052071;28;20059;-70
2022/05/15 01:13:53;;;;;;;27.05;14.95;;;;;;;;;;5051224;28;20059;-69
2022/05/15 01:16:57;;;;;;;31.00;15.45;;;;;;;;;;5052191;28;20523;-70
2022/05/15 01:20:05;;;;;;;37.60;15.45;;;;;;;;;;5051353;28;20044;-69
2022/05/15 01:23:09;;;;;;;25.65;13.65;;;;;;;;;;5039889;28;20044;-70
2022/05/15 01:26:13;;;;;;;24.50;13.52;;;;;;;;;;5051071;28;20044;-69
2022/05/15 01:29:18;;;;;;;32.72;14.85;;;;;;;;;;5052053;28;20499;-70
2022/05/15 01:32:23;;;;;;;23.02;13.63;;;;;;;;;;5050820;28;20048;-69
2022/05/15 01:35:27;;;;;;;31.23;15.07;;;;;;;;;;5051880;28;20048;-70
2022/05/15 01:38:32;;;;;;;33.25;16.33;;;;;;;;;;5050906;28;20052;-70
2022/05/15 01:41:37;;;;;;;30.35;15.65;;;;;;;;;;5051821;28;20076;-70
2022/05/15 01:44:41;;;;;;;29.73;16.35;;;;;;;;;;5051654;28;20052;-70
2022/05/15 01:47:45;;;;;;;26.10;15.55;;;;;;;;;;5050685;28;20074;-70
2022/05/15 01:50:50;;;;;;;32.95;15.95;;;;;;;;;;5049679;28;20484;-69
2022/05/15 01:54:02;;;;;;;27.85;16.58;;;;;;;;;;5039781;28;20052;-69
2022/05/15 01:57:06;;;;;;;25.90;14.90;;;;;;;;;;5038913;28;20044;-69
2022/05/15 02:00:13;;;;;;;25.90;16.55;;;;;;;;;;5050480;28;20048;-69
2022/05/15 02:03:18;;;;;;;33.00;16.45;;;;;;;;;;5050460;28;20044;-69
2022/05/15 02:06:22;;;;;;;28.77;16.27;;;;;;;;;;5050300;28;20044;-69
2022/05/15 02:09:27;;;;;;;34.33;16.85;;;;;;;;;;5050718;28;20225;-70
2022/05/15 02:12:31;;;;;;;26.52;15.95;;;;;;;;;;5038939;28;20052;-70
2022/05/15 02:15:36;;;;;;;33.67;16.40;;;;;;;;;;5038652;28;20472;-70
2022/05/15 02:18:40;;;;;;;25.45;16.27;;;;;;;;;;5051024;28;20043;-70
2022/05/15 02:21:44;;;;;;;30.35;15.82;;;;;;;;;;5050314;28;20052;-70
2022/05/15 02:24:48;;;;;;;30.15;16.35;;;;;;;;;;5050716;28;20040;-70
2022/05/15 02:27:53;;;;;;;25.13;15.30;;;;;;;;;;5049962;28;20512;-70
2022/05/15 02:30:57;;;;;;;29.50;17.98;;;;;;;;;;5050971;28;20480;-69
2022/05/15 02:34:01;;;;;;;32.33;17.35;;;;;;;;;;5049780;28;20297;-70
2022/05/15 02:37:07;;;;;;;32.30;18.35;;;;;;;;;;5050247;28;20389;-70
2022/05/15 02:40:12;;;;;;;33.42;18.42;;;;;;;;;;5049735;28;20504;-70
2022/05/15 02:43:17;;;;;;;32.85;17.38;;;;;;;;;;5049721;28;20048;-70
2022/05/15 02:46:22;;;;;;;27.13;17.45;;;;;;;;;;5038199;28;20091;-69
2022/05/15 02:52:49;;;;;;;33.22;17.90;;;;;;;;;;5049688;28;20052;-69
2022/05/15 02:55:53;;;;;;;28.95;16.70;;;;;;;;;;5050558;28;20159;-70
2022/05/15 02:58:57;;;;;;;29.05;16.40;;;;;;;;;;5049847;28;20044;-70
2022/05/15 03:02:03;;;;;;;33.53;16.33;;;;;;;;;;5051870;28;20040;-69
2022/05/15 03:05:08;;;;;;;29.98;16.48;;;;;;;;;;5053698;28;20393;-69
2022/05/15 03:08:13;;;;;;;28.55;16.38;;;;;;;;;;5052991;28;20519;-70
2022/05/15 03:11:17;;;;;;;29.98;17.45;;;;;;;;;;5054232;28;20357;-69
2022/05/15 03:14:21;;;;;;;24.27;16.40;;;;;;;;;;5053282;28;20303;-70
2022/05/15 03:17:26;;;;;;;34.78;17.80;;;;;;;;;;5053985;28;20384;-70
2022/05/15 03:20:30;;;;;;;28.83;16.63;;;;;;;;;;5054080;28;20052;-70
2022/05/15 03:23:34;;;;;;;26.83;17.17;;;;;;;;;;5053339;28;20462;-70
2022/05/15 03:26:43;;;;;;;32.40;18.50;;;;;;;;;;5055567;28;20507;-69
2022/05/15 03:29:47;;;;;;;34.15;17.50;;;;;;;;;;5053833;28;20064;-70
2022/05/15 03:32:51;;;;;;;27.38;18.05;;;;;;;;;;5053916;28;20052;-70
2022/05/15 03:35:55;;;;;;;28.85;18.15;;;;;;;;;;5053857;28;20044;-70
2022/05/15 03:39:00;;;;;;;34.80;18.60;;;;;;;;;;5041547;28;20063;-70
2022/05/15 03:42:04;;;;;;;28.45;18.05;;;;;;;;;;5052859;28;20044;-70
2022/05/15 03:45:09;;;;;;;30.60;19.20;;;;;;;;;;5053352;28;20077;-70
2022/05/15 03:48:14;;;;;;;27.67;17.45;;;;;;;;;;5052616;28;20044;-70
2022/05/15 03:51:19;;;;;;;30.35;17.63;;;;;;;;;;5052418;28;20039;-70
2022/05/15 03:54:23;;;;;;;29.35;17.90;;;;;;;;;;5053234;28;20052;-70
2022/05/15 03:57:27;;;;;;;38.30;17.23;;;;;;;;;;5052247;28;20052;-70
2022/05/15 04:00:31;;;;;;;29.52;16.35;;;;;;;;;;5052835;28;20051;-70
2022/05/15 04:03:36;;;;;;;25.88;17.38;;;;;;;;;;5052648;28;20040;-70
2022/05/15 04:06:40;;;;;;;30.67;17.45;;;;;;;;;;5053026;28;20040;-70
2022/05/15 04:09:44;;;;;;;33.92;18.90;;;;;;;;;;5053079;28;20052;-70
2022/05/15 04:12:49;;;;;;;31.27;18.30;;;;;;;;;;5051524;28;20052;-70
2022/05/15 04:15:53;;;;;;;36.80;19.13;;;;;;;;;;5052426;28;20519;-70
2022/05/15 04:18:59;;;;;;;37.03;18.50;;;;;;;;;;5052466;28;20052;-70
2022/05/15 04:22:05;;;;;;;38.95;19.45;;;;;;;;;;5051975;28;20044;-69
2022/05/15 04:25:11;;;;;;;30.15;17.63;;;;;;;;;;5052341;28;20496;-70
2022/05/15 04:28:16;;;;;;;28.15;17.65;;;;;;;;;;5051702;28;20423;-70
2022/05/15 04:31:21;;;;;;;24.75;17.30;;;;;;;;;;5052932;28;20040;-70
2022/05/15 04:34:25;;;;;;;31.52;18.77;;;;;;;;;;5051862;28;20408;-70
2022/05/15 04:37:30;;;;;;;35.30;19.33;;;;;;;;;;5052656;28;20040;-69
2022/05/15 04:40:34;;;;;;;32.90;18.00;;;;;;;;;;5052709;28;20052;-70
2022/05/15 04:43:38;;;;;;;36.45;19.67;;;;;;;;;;5052731;28;20044;-70
2022/05/15 04:46:43;;;;;;;32.90;18.75;;;;;;;;;;5052470;28;20048;-70
2022/05/15 04:49:49;;;;;;;27.73;18.30;;;;;;;;;;5052938;28;20291;-70
2022/05/15 04:52:53;;;;;;;25.23;16.50;;;;;;;;;;5052556;28;20051;-70
2022/05/15 04:55:59;;;;;;;33.92;19.02;;;;;;;;;;5052156;28;20107;-70
2022/05/15 04:59:03;;;;;;;31.27;18.50;;;;;;;;;;5052540;28;20064;-69
2022/05/15 05:02:07;;;;;;;31.58;18.00;;;;;;;;;;5051701;28;20040;-68
2022/05/15 05:05:12;;;;;;;32.03;19.98;;;;;;;;;;5052220;28;20059;-70
2022/05/15 05:08:16;;;;;;;29.00;19.35;;;;;;;;;;5052151;28;20590;-69
2022/05/15 05:11:20;;;;;;;33.53;19.52;;;;;;;;;;5052392;28;20425;-70
2022/05/15 05:14:24;;;;;;;38.50;23.45;;;;;;;;;;5051799;28;20060;-70
2022/05/15 05:17:29;;;;;;;45.67;26.75;;;;;;;;;;5052085;28;20048;-70
2022/05/15 05:20:33;;;;;;;37.40;24.38;;;;;;;;;;5051892;28;20127;-70
2022/05/15 05:23:37;;;;;;;40.85;26.17;;;;;;;;;;5051449;28;20124;-70
2022/05/15 05:26:42;;;;;;;45.13;28.33;;;;;;;;;;5051810;28;20044;-70
2022/05/15 05:29:46;;;;;;;50.05;30.73;;;;;;;;;;5051755;28;20064;-70
2022/05/15 05:32:50;;;;;;;51.13;33.08;;;;;;;;;;5050691;28;20043;-70
2022/05/15 05:35:55;;;;;;;52.08;31.33;;;;;;;;;;5051857;28;20060;-70
2022/05/15 05:38:59;;;;;;;52.88;29.98;;;;;;;;;;5051538;28;20055;-70
2022/05/15 05:42:04;;;;;;;55.47;32.53;;;;;;;;;;5051675;28;20052;-70
2022/05/15 05:45:08;;;;;;;48.80;30.73;;;;;;;;;;5051912;28;20044;-70
2022/05/15 05:48:13;;;;;;;50.25;29.02;;;;;;;;;;5051482;28;20040;-70
2022/05/15 05:51:17;;;;;;;47.20;26.73;;;;;;;;;;5051368;28;20392;-70
2022/05/15 05:54:21;;;;;;;45.42;26.83;;;;;;;;;;5051196;28;20047;-69
2022/05/15 05:57:26;;;;;;;42.15;24.73;;;;;;;;;;5051337;28;20040;-70
2022/05/15 06:00:31;;;;;;;36.78;22.75;;;;;;;;;;5050415;28;20048;-69
2022/05/15 06:06:58;;;;;;;34.38;18.65;;;;;;;;;;5051024;28;20044;-69
2022/05/15 06:10:03;;;;;;;31.67;18.95;;;;;;;;;;5050934;28;20056;-74
2022/05/15 06:13:08;;;;;;;23.17;17.05;;;;;;;;;;5051012;28;20051;-74
2022/05/15 06:16:13;;;;;;;31.42;16.73;;;;;;;;;;5050901;28;20047;-75
2022/05/15 06:19:17;;;;;;;27.77;15.75;;;;;;;;;;5051025;28;20051;-75
2022/05/15 06:22:21;;;;;;;29.92;15.80;;;;;;;;;;5050990;28;20043;-73
2022/05/15 06:25:26;;;;;;;27.58;14.50;;;;;;;;;;5050833;28;20043;-74
2022/05/15 06:28:33;;;;;;;25.92;15.15;;;;;;;;;;5051019;28;20048;-75
2022/05/15 06:31:37;;;;;;;21.88;14.60;;;;;;;;;;5050773;28;20052;-72
2022/05/15 06:34:41;;;;;;;24.80;15.38;;;;;;;;;;5049933;28;20047;-73
2022/05/15 06:37:46;;;;;;;27.05;16.75;;;;;;;;;;5049483;28;20044;-73
2022/05/15 06:40:50;;;;;;;21.23;14.15;;;;;;;;;;5050934;28;20044;-73
2022/05/15 06:43:54;;;;;;;25.77;16.35;;;;;;;;;;5050875;28;20051;-73
2022/05/15 06:46:59;;;;;;;21.42;12.32;;;;;;;;;;5050793;28;20048;-73
2022/05/15 06:50:05;;;;;;;26.10;12.48;;;;;;;;;;5050391;28;20052;-73
2022/05/15 06:53:13;;;;;;;26.20;12.23;;;;;;;;;;5049647;28;20085;-73
2022/05/15 06:59:40;;;;;;;20.15;12.02;;;;;;;;;;5050869;28;20044;-73
2022/05/15 07:02:46;;;;;;;19.65;11.25;;;;;;;;;;5050573;28;20072;-73
2022/05/15 07:05:50;;;;;;;21.83;10.13;;;;;;;;;;5050757;28;20040;-73
2022/05/15 07:08:54;;;;;;;19.90;11.60;;;;;;;;;;5050311;28;20068;-73
2022/05/15 07:11:59;;;;;;;28.63;11.57;;;;;;;;;;5050548;28;20357;-73
2022/05/15 07:15:03;;;;;;;21.75;11.20;;;;;;;;;;5049515;28;20056;-74
2022/05/15 07:18:08;;;;;;;22.55;10.55;;;;;;;;;;5050224;28;20044;-74
2022/05/15 07:21:13;;;;;;;22.27;9.77;;;;;;;;;;5050315;28;20052;-75
2022/05/15 07:24:17;;;;;;;23.77;10.35;;;;;;;;;;5050501;28;20048;-75
2022/05/15 07:27:21;;;;;;;20.65;9.55;;;;;;;;;;5050353;28;20047;-73
2022/05/15 07:30:25;;;;;;;23.00;9.95;;;;;;;;;;5049461;28;20044;-73
2022/05/15 07:33:30;;;;;;;22.85;10.48;;;;;;;;;;5038224;28;20060;-73
2022/05/15 07:36:34;;;;;;;21.17;10.02;;;;;;;;;;5050779;28;20059;-73
2022/05/15 07:39:38;;;;;;;30.20;10.65;;;;;;;;;;5050337;28;20044;-74
2022/05/15 07:42:43;;;;;;;15.07;9.60;;;;;;;;;;5050461;28;20048;-74
2022/05/15 07:45:48;;;;;;;18.33;8.82;;;;;;;;;;5050123;28;20397;-74
2022/05/15 07:48:54;;;;;;;23.55;9.35;;;;;;;;;;5051581;28;20203;-74
2022/05/15 07:51:59;;;;;;;23.52;9.45;;;;;;;;;;5041933;28;20050;-74
2022/05/15 07:55:06;;;;;;;23.38;8.60;;;;;;;;;;5041296;28;20056;-74
2022/05/15 07:58:10;;;;;;;18.83;9.23;;;;;;;;;;5053374;28;20044;-74
2022/05/15 08:01:14;;;;;;;23.08;9.60;;;;;;;;;;5053381;28;20519;-74
2022/05/15 08:04:18;;;;;;;20.60;10.15;;;;;;;;;;5053444;28;20409;-74
2022/05/15 08:10:47;;;;;;;21.75;8.73;;;;;;;;;;5053265;28;20056;-74
2022/05/15 08:13:51;;;;;;;17.13;7.78;;;;;;;;;;5053335;28;20052;-74
2022/05/15 08:16:56;;;;;;;15.65;7.60;;;;;;;;;;5053246;28;20043;-73
2022/05/15 08:23:36;;;;;;;26.80;8.25;;;;;;;;;;5052929;28;20059;-73
2022/05/15 08:26:41;;;;;;;19.35;7.95;;;;;;;;;;5052958;28;20385;-74
2022/05/15 08:29:46;;;;;;;21.10;6.75;;;;;;;;;;5052998;28;20052;-72
2022/05/15 08:32:53;;;;;;;16.95;7.85;;;;;;;;;;5052309;28;20048;-72
2022/05/15 08:35:58;;;;;;;20.05;6.85;;;;;;;;;;5052951;28;20055;-75
2022/05/15 08:39:03;;;;;;;23.85;8.85;;;;;;;;;;5040823;28;20480;-74
2022/05/15 08:42:21;;;;;;;17.52;8.95;;;;;;;;;;5052484;28;20047;-74
2022/05/15 08:45:28;;;;;;;22.30;8.32;;;;;;;;;;5052511;28;20052;-75
2022/05/15 08:48:35;;;;;;;17.10;6.53;;;;;;;;;;5052340;28;20039;-74
2022/05/15 08:51:44;;;;;;;19.38;8.45;;;;;;;;;;5052466;28;20044;-74
2022/05/15 08:55:08;;;;;;;22.00;8.73;;;;;;;;;;5051269;28;20052;-72
2022/05/15 08:58:19;;;;;;;23.45;8.05;;;;;;;;;;5052380;28;20042;-73
2022/05/15 09:01:26;;;;;;;18.38;7.32;;;;;;;;;;5051349;28;20060;-74
2022/05/15 09:04:32;;;;;;;19.45;6.75;;;;;;;;;;5052412;28;20047;-72
2022/05/15 09:07:56;;;;;;;18.80;7.00;;;;;;;;;;5052172;28;20052;-74
2022/05/15 09:11:09;;;;;;;15.45;5.45;;;;;;;;;;5052468;28;20052;-72
2022/05/15 09:14:16;;;;;;;11.20;5.65;;;;;;;;;;5051175;28;20436;-73
2022/05/15 09:17:39;;;;;;;18.38;6.32;;;;;;;;;;5051980;28;20512;-73
2022/05/15 09:20:43;;;;;;;14.73;4.78;;;;;;;;;;5052038;28;20052;-75
2022/05/15 09:23:47;;;;;;;26.95;6.20;;;;;;;;;;5052013;28;20052;-74
2022/05/15 09:26:51;;;;;;;17.15;5.53;;;;;;;;;;5050811;28;20048;-74
2022/05/15 09:29:57;;;;;;;12.77;5.93;;;;;;;;;;5051841;28;20040;-74
2022/05/15 09:33:02;;;;;;;13.98;5.50;;;;;;;;;;5050762;28;20044;-73
2022/05/15 09:36:17;;;;;;;14.38;4.88;;;;;;;;;;5050519;28;20056;-74
2022/05/15 09:39:24;;;;;;;15.50;5.70;;;;;;;;;;5051485;28;20413;-74
2022/05/15 09:45:56;;;;;;;15.45;5.45;;;;;;;;;;5051541;28;20477;-72
2022/05/15 09:49:05;;;;;;;19.05;5.40;;;;;;;;;;5050715;28;20051;-73
2022/05/15 09:52:12;;;;;;;14.95;5.70;;;;;;;;;;5051553;28;20047;-73
2022/05/15 09:55:22;;;;;;;14.07;5.20;;;;;;;;;;5050513;28;20094;-74
2022/05/15 09:58:35;;;;;;;14.43;6.15;;;;;;;;;;5051261;28;20051;-73
2022/05/15 10:01:41;;;;;;;19.08;7.20;;;;;;;;;;5050786;28;20048;-72
2022/05/15 10:04:47;;;;;;;14.63;6.65;;;;;;;;;;5050205;28;20059;-72
2022/05/15 10:07:58;;;;;;;16.40;6.95;;;;;;;;;;5050772;28;20048;-72
2022/05/15 10:11:07;;;;;;;15.65;7.50;;;;;;;;;;5050348;28;20043;-72
2022/05/15 10:14:19;;;;;;;15.52;6.80;;;;;;;;;;5050965;28;20512;-71
2022/05/15 10:17:25;;;;;;;13.50;7.20;;;;;;;;;;5050807;28;20059;-72
2022/05/15 10:20:30;;;;;;;20.23;8.35;;;;;;;;;;5050753;28;20404;-72
2022/05/15 10:23:49;;;;;;;18.38;7.68;;;;;;;;;;5049747;28;20052;-73
2022/05/15 10:27:04;;;;;;;13.95;6.45;;;;;;;;;;5050960;28;20052;-72
2022/05/15 10:30:16;;;;;;;15.55;7.25;;;;;;;;;;5050951;28;20055;-74
2022/05/15 10:33:20;;;;;;;16.27;7.00;;;;;;;;;;5050583;28;20048;-74
2022/05/15 10:36:27;;;;;;;22.05;7.90;;;;;;;;;;5050509;28;20043;-74
2022/05/15 10:39:37;;;;;;;13.73;6.78;;;;;;;;;;5049936;28;20056;-74
2022/05/15 10:43:08;;;;;;;10.10;5.18;;;;;;;;;;5050566;28;20511;-73
2022/05/15 10:46:12;;;;;;;13.10;6.65;;;;;;;;;;5049803;28;20048;-73
2022/05/15 10:49:19;;;;;;;16.30;6.32;;;;;;;;;;5050682;28;20056;-74
2022/05/15 10:52:30;;;;;;;15.52;6.00;;;;;;;;;;5050563;28;20044;-72
2022/05/15 10:59:07;;;;;;;13.80;6.22;;;;;;;;;;5050860;28;20480;-72
2022/05/15 11:02:30;;;;;;;10.00;5.88;;;;;;;;;;5050688;28;20048;-74
2022/05/15 11:05:37;;;;;;;11.23;5.57;;;;;;;;;;5050472;28;20500;-73
2022/05/15 11:08:45;;;;;;;20.63;7.13;;;;;;;;;;5049560;28;20052;-73
2022/05/15 11:11:59;;;;;;;12.88;6.10;;;;;;;;;;5050392;28;20063;-74
2022/05/15 11:15:22;;;;;;;12.50;6.78;;;;;;;;;;5050868;28;20052;-73
2022/05/15 11:18:26;;;;;;;19.77;6.63;;;;;;;;;;5050453;28;20048;-74
2022/05/15 11:21:30;;;;;;;9.23;5.40;;;;;;;;;;5050479;28;20051;-74
2022/05/15 11:24:35;;;;;;;17.75;7.82;;;;;;;;;;5054285;28;20041;-74
2022/05/15 11:27:51;;;;;;;15.13;7.05;;;;;;;;;;5053756;28;20048;-74
2022/05/15 11:31:04;;;;;;;13.35;6.88;;;;;;;;;;5054331;28;20064;-74
2022/05/15 11:34:09;;;;;;;10.82;6.72;;;;;;;;;;5053203;28;20052;-73
2022/05/15 11:37:34;;;;;;;12.35;6.28;;;;;;;;;;5053233;28;20044;-74
2022/05/15 11:40:42;;;;;;;14.30;6.65;;;;;;;;;;5059374;28;20048;-73
2022/05/15 11:43:58;;;;;;;13.30;6.43;;;;;;;;;;5052721;28;20044;-72
2022/05/15 11:47:21;;;;;;;18.13;7.55;;;;;;;;;;5052979;28;20132;-74
2022/05/15 11:50:30;;;;;;;22.42;8.35;;;;;;;;;;5053637;28;20048;-74
2022/05/15 11:53:54;;;;;;;17.20;8.10;;;;;;;;;;5041437;28;20054;-73
2022/05/15 11:56:58;;;;;;;20.02;8.15;;;;;;;;;;5053606;28;20051;-74
2022/05/15 12:00:06;;;;;;;13.90;8.18;;;;;;;;;;5053767;28;20040;-74
2022/05/15 12:03:29;;;;;;;14.00;6.45;;;;;;;;;;5053692;28;20044;-74
2022/05/15 12:06:46;;;;;;;11.73;6.05;;;;;;;;;;5053075;28;20044;-72
2022/05/15 12:09:51;;;;;;;12.82;5.65;;;;;;;;;;5041096;28;20052;-73
2022/05/15 12:13:06;;;;;;;13.77;5.93;;;;;;;;;;5053289;28;20056;-74
2022/05/15 12:16:14;;;;;;;19.08;6.47;;;;;;;;;;5052906;28;20426;-73
2022/05/15 12:19:39;;;;;;;18.15;8.80;;;;;;;;;;5053185;28;20059;-73
2022/05/15 12:22:46;;;;;;;15.65;5.82;;;;;;;;;;5053331;28;20067;-74
2022/05/15 12:25:50;;;;;;;12.32;6.30;;;;;;;;;;5052446;28;20048;-72
2022/05/15 12:28:54;;;;;;;13.68;5.85;;;;;;;;;;5053125;28;20119;-74
2022/05/15 12:31:59;;;;;;;12.52;5.82;;;;;;;;;;5053271;28;20044;-74
2022/05/15 12:35:06;;;;;;;7.53;4.97;;;;;;;;;;5051833;28;20048;-73
2022/05/15 12:38:15;;;;;;;12.10;6.72;;;;;;;;;;5053044;28;20037;-73
2022/05/15 12:41:25;;;;;;;12.27;5.75;;;;;;;;;;5052003;28;20507;-73
2022/05/15 12:44:31;;;;;;;14.43;7.97;;;;;;;;;;5051984;28;20087;-73
2022/05/15 12:47:36;;;;;;;16.38;6.72;;;;;;;;;;5051859;28;20580;-73
2022/05/15 12:50:52;;;;;;;17.13;6.05;;;;;;;;;;5052553;28;20037;-73
2022/05/15 12:53:56;;;;;;;16.20;4.78;;;;;;;;;;5051795;28;20052;-73
2022/05/15 12:57:03;;;;;;;18.92;5.22;;;;;;;;;;5052160;28;20040;-72
2022/05/15 13:00:11;;;;;;;12.55;4.93;;;;;;;;;;5051864;28;20048;-73
2022/05/15 13:03:19;;;;;;;14.38;4.57;;;;;;;;;;5052185;28;20397;-71
2022/05/15 13:06:33;;;;;;;11.30;4.13;;;;;;;;;;5052266;28;20502;-73
2022/05/15 13:09:39;;;;;;;22.40;5.53;;;;;;;;;;5051919;28;20048;-72
2022/05/15 13:12:51;;;;;;;16.90;4.75;;;;;;;;;;5052334;28;20044;-71
2022/05/15 13:15:57;;;;;;;15.18;4.43;;;;;;;;;;5052048;28;20230;-71
2022/05/15 13:19:01;;;;;;;12.48;4.05;;;;;;;;;;5052403;28;20040;-71
2022/05/15 13:22:07;;;;;;;11.32;3.78;;;;;;;;;;5050921;28;20049;-73
2022/05/15 13:25:19;;;;;;;15.27;3.70;;;;;;;;;;5051834;28;20512;-73
2022/05/15 13:28:23;;;;;;;13.07;3.80;;;;;;;;;;5051673;28;20612;-73
2022/05/15 13:31:29;;;;;;;9.13;3.28;;;;;;;;;;5051743;28;20040;-73
2022/05/15 13:34:34;;;;;;;8.15;3.95;;;;;;;;;;5051682;28;20437;-73
2022/05/15 13:37:40;;;;;;;13.65;3.33;;;;;;;;;;5051332;28;20036;-73
2022/05/15 13:44:11;;;;;;;13.40;4.38;;;;;;;;;;5051793;28;20060;-73
2022/05/15 13:47:16;;;;;;;8.43;3.40;;;;;;;;;;5051148;28;20044;-73
2022/05/15 13:50:36;;;;;;;9.90;4.13;;;;;;;;;;5051833;28;20045;-73
2022/05/15 13:53:42;;;;;;;10.60;4.88;;;;;;;;;;5051885;28;20037;-72
2022/05/15 13:56:55;;;;;;;10.93;3.92;;;;;;;;;;5051162;28;20063;-72
2022/05/15 14:00:03;;;;;;;12.63;4.20;;;;;;;;;;5051265;28;20397;-70
2022/05/15 14:03:10;;;;;;;10.85;4.20;;;;;;;;;;5051445;28;20044;-72
2022/05/15 14:06:29;;;;;;;11.15;3.65;;;;;;;;;;5051099;28;20048;-72
2022/05/15 14:09:43;;;;;;;13.48;3.95;;;;;;;;;;5050952;28;20504;-71
2022/05/15 14:12:48;;;;;;;8.57;3.55;;;;;;;;;;5050476;28;20040;-73
2022/05/15 14:15:53;;;;;;;15.45;4.45;;;;;;;;;;5050691;28;20049;-72
2022/05/15 14:18:58;;;;;;;13.10;4.78;;;;;;;;;;5050232;28;20535;-71
2022/05/15 14:22:05;;;;;;;10.43;4.45;;;;;;;;;;5051015;28;20040;-72
2022/05/15 14:25:10;;;;;;;11.75;4.85;;;;;;;;;;5050912;28;20060;-73
2022/05/15 14:28:15;;;;;;;13.20;4.90;;;;;;;;;;5050859;28;20047;-73
2022/05/15 14:31:24;;;;;;;10.23;4.53;;;;;;;;;;5050967;28;20052;-73
2022/05/15 14:34:29;;;;;;;11.77;4.97;;;;;;;;;;5050842;28;20059;-73
2022/05/15 14:37:33;;;;;;;9.95;5.03;;;;;;;;;;5050644;28;20032;-72
2022/05/15 14:40:38;;;;;;;15.57;5.22;;;;;;;;;;5050547;28;20041;-70
2022/05/15 14:43:42;;;;;;;9.45;4.00;;;;;;;;;;5050103;28;20044;-71
2022/05/15 14:46:48;;;;;;;16.48;4.63;;;;;;;;;;5050808;28;20041;-72
2022/05/15 14:49:54;;;;;;;8.00;4.60;;;;;;;;;;5050726;28;20040;-72
2022/05/15 14:52:58;;;;;;;12.23;4.72;;;;;;;;;;5050647;28;20496;-73
2022/05/15 14:56:10;;;;;;;8.35;4.40;;;;;;;;;;5050501;28;20063;-73
2022/05/15 14:59:16;;;;;;;11.63;4.88;;;;;;;;;;5054932;28;20045;-73
2022/05/15 15:02:22;;;;;;;13.82;5.30;;;;;;;;;;5054636;28;20040;-72
2022/05/15 15:05:26;;;;;;;8.43;4.15;;;;;;;;;;5054678;28;20042;-73
2022/05/15 15:08:31;;;;;;;13.43;4.95;;;;;;;;;;5054286;28;20477;-74
2022/05/15 15:11:37;;;;;;;10.50;4.60;;;;;;;;;;5055070;28;20115;-72
2022/05/15 15:14:41;;;;;;;14.63;4.75;;;;;;;;;;5054814;28;20040;-72
2022/05/15 15:17:46;;;;;;;9.13;4.28;;;;;;;;;;5054057;28;20048;-72
2022/05/15 15:20:50;;;;;;;11.65;4.45;;;;;;;;;;5054298;28;20029;-73
2022/05/15 15:23:54;;;;;;;17.15;5.28;;;;;;;;;;5053266;28;20044;-72
2022/05/15 15:26:58;;;;;;;12.32;4.72;;;;;;;;;;5054096;28;20504;-72
2022/05/15 15:30:03;;;;;;;15.07;4.75;;;;;;;;;;5041926;28;20036;-70
2022/05/15 15:33:08;;;;;;;8.57;3.92;;;;;;;;;;5054177;28;20056;-71
2022/05/15 15:36:12;;;;;;;13.68;4.88;;;;;;;;;;5053076;28;20041;-72
2022/05/15 15:39:16;;;;;;;17.55;4.93;;;;;;;;;;5053951;28;20048;-73
2022/05/15 15:42:22;;;;;;;15.10;5.18;;;;;;;;;;5053710;28;20047;-72
2022/05/15 15:45:26;;;;;;;13.82;4.65;;;;;;;;;;5053550;28;20048;-73
2022/05/15 15:48:31;;;;;;;11.88;4.28;;;;;;;;;;5053470;28;20385;-72
2022/05/15 15:51:36;;;;;;;12.95;4.32;;;;;;;;;;5053527;28;20056;-72
2022/05/15 15:54:40;;;;;;;22.90;5.60;;;;;;;;;;5053490;28;20063;-71
2022/05/15 15:57:45;;;;;;;9.65;4.63;;;;;;;;;;5053418;28;20068;-72
2022/05/15 16:00:49;;;;;;;12.77;5.05;;;;;;;;;;5053540;28;20037;-71
2022/05/15 16:03:57;;;;;;;21.95;5.07;;;;;;;;;;5053715;28;20385;-72
2022/05/15 16:07:03;;;;;;;13.23;4.68;;;;;;;;;;5053435;28;20052;-73
2022/05/15 16:10:08;;;;;;;16.52;4.30;;;;;;;;;;5051523;28;20060;-72
2022/05/15 16:13:12;;;;;;;14.57;5.20;;;;;;;;;;5052982;28;20048;-72
2022/05/15 16:16:17;;;;;;;19.67;5.18;;;;;;;;;;5053109;28;20054;-72
2022/05/15 16:19:21;;;;;;;17.95;4.68;;;;;;;;;;5052805;28;20040;-72
2022/05/15 16:22:27;;;;;;;20.70;4.93;;;;;;;;;;5053144;28;20048;-72
2022/05/15 16:25:31;;;;;;;15.40;4.22;;;;;;;;;;5052758;28;20051;-72
2022/05/15 16:28:38;;;;;;;14.05;4.15;;;;;;;;;;5052895;28;20116;-70
2022/05/15 16:31:44;;;;;;;15.93;4.80;;;;;;;;;;5053174;28;20040;-72
2022/05/15 16:34:48;;;;;;;9.73;4.22;;;;;;;;;;5052663;28;20504;-72
2022/05/15 16:37:52;;;;;;;15.60;4.70;;;;;;;;;;5052788;28;20048;-72
2022/05/15 16:40:58;;;;;;;19.15;4.65;;;;;;;;;;5052046;28;20040;-72
2022/05/15 16:44:03;;;;;;;19.10;4.90;;;;;;;;;;5052921;28;20499;-72
2022/05/15 16:47:08;;;;;;;13.07;4.78;;;;;;;;;;5052498;28;20389;-74
2022/05/15 16:50:16;;;;;;;15.40;4.97;;;;;;;;;;5052433;28;20052;-74
2022/05/15 16:53:21;;;;;;;21.85;5.00;;;;;;;;;;5052181;28;20048;-74
2022/05/15 16:56:27;;;;;;;16.77;4.68;;;;;;;;;;5051498;28;20060;-74
2022/05/15 16:59:32;;;;;;;14.95;4.10;;;;;;;;;;5039106;28;20516;-74
2022/05/15 17:02:36;;;;;;;18.08;4.80;;;;;;;;;;5049959;28;20036;-74
2022/05/15 17:05:41;;;;;;;19.42;5.22;;;;;;;;;;5050322;28;20047;-74
2022/05/15 17:08:46;;;;;;;15.82;5.15;;;;;;;;;;5049879;28;20056;-74
2022/05/15 17:11:52;;;;;;;18.30;5.00;;;;;;;;;;5050752;28;20048;-74
2022/05/15 17:14:57;;;;;;;17.73;4.88;;;;;;;;;;5051814;28;20519;-74
2022/05/15 17:18:01;;;;;;;19.05;5.50;;;;;;;;;;5051846;28;20040;-74
2022/05/15 17:21:05;;;;;;;20.88;5.88;;;;;;;;;;5052138;28;20055;-74
2022/05/15 17:24:27;;;;;;;14.75;4.75;;;;;;;;;;5052053;28;20500;-74
2022/05/15 17:27:31;;;;;;;9.38;3.63;;;;;;;;;;5051955;28;20040;-74
2022/05/15 17:34:15;;;;;;;21.52;4.68;;;;;;;;;;5050939;28;20044;-73
2022/05/15 17:37:20;;;;;;;14.90;4.35;;;;;;;;;;5051857;28;20051;-73
2022/05/15 17:40:28;;;;;;;15.85;4.50;;;;;;;;;;5050514;28;20043;-74
2022/05/15 17:43:32;;;;;;;17.42;4.22;;;;;;;;;;5051671;28;20060;-73
2022/05/15 17:46:37;;;;;;;18.65;4.53;;;;;;;;;;5040541;28;20040;-74
2022/05/15 17:49:44;;;;;;;26.02;4.97;;;;;;;;;;5051593;28;20060;-72
2022/05/15 17:52:49;;;;;;;18.65;4.63;;;;;;;;;;5050468;28;20230;-72
2022/05/15 17:55:54;;;;;;;24.88;5.10;;;;;;;;;;5050877;28;20052;-72
2022/05/15 17:58:59;;;;;;;18.75;4.43;;;;;;;;;;5050388;28;20365;-73
2022/05/15 18:02:03;;;;;;;17.67;4.22;;;;;;;;;;5050589;28;20040;-73
2022/05/15 18:05:08;;;;;;;16.27;4.60;;;;;;;;;;5051202;28;20322;-73
2022/05/15 18:08:12;;;;;;;17.55;5.05;;;;;;;;;;5051246;28;20044;-73
2022/05/15 18:11:16;;;;;;;17.17;4.65;;;;;;;;;;5051125;28;20044;-73
2022/05/15 18:14:21;;;;;;;21.05;4.68;;;;;;;;;;5050998;28;20064;-71
2022/05/15 18:17:25;;;;;;;17.25;4.13;;;;;;;;;;5049377;28;20059;-71
2022/05/15 18:20:31;;;;;;;15.13;4.57;;;;;;;;;;5049867;28;20052;-71
2022/05/15 18:23:36;;;;;;;13.65;5.38;;;;;;;;;;5049720;28;20191;-71
2022/05/15 18:26:40;;;;;;;23.60;5.28;;;;;;;;;;5050982;28;20044;-71
2022/05/15 18:29:44;;;;;;;17.88;4.95;;;;;;;;;;5050327;28;20052;-70
2022/05/15 18:32:49;;;;;;;16.98;5.05;;;;;;;;;;5049891;28;20075;-70
2022/05/15 18:35:54;;;;;;;17.88;5.15;;;;;;;;;;5026978;28;20060;-70
2022/05/15 18:38:58;;;;;;;18.13;4.60;;;;;;;;;;5050274;28;20035;-70
2022/05/15 18:42:06;;;;;;;22.33;7.97;;;;;;;;;;5050672;28;20623;-71
2022/05/15 18:45:12;;;;;;;18.13;5.07;;;;;;;;;;5050870;28;20036;-70
2022/05/15 18:48:17;;;;;;;18.55;5.30;;;;;;;;;;5050985;28;20059;-71